sensor_id;sensor_type;location;lat;lon;timestamp;P1;durP1;ratioP1;P2;durP2;ratioP2
33954;SDS011;20233;50.804;7.126;2023-08-01T00:00:39;0.50;;;0.10;;
33954;SDS011;20233;50.804;7.126;2023-08-01T00:03:06;1.23;;;0.10;;
33954;SDS011;20233;50.804;7.126;2023-08-01T00:05:32;3.22;;;0.10;;
33954;SDS011;20233;50.804;7.126;2023-08-01T00:08:00;1.33;;;0.10;;
33954;SDS011;20233;50.804;7.126;2023-08-01T00:10:28;0.88;;;0.10;;
33954;SDS011;20233;50.804;7.126;2023-08-01T00:12:54;0.95;;;0.10;;
33954;SDS011;20233;50.804;7.126;2023-08-01T00:15:20;1.17;;;0.10;;
33954;SDS011;20233;50.804;7.126;2023-08-01T00:17:46;3.13;;;0.20;;
33954;SDS011;20233;50.804;7.126;2023-08-01T00:20:12;1.67;;;0.10;;
33954;SDS011;20233;50.804;7.126;2023-08-01T00:22:38;0.90;;;0.10;;
33954;SDS011;20233;50.804;7.126;2023-08-01T00:25:05;1.98;;;0.15;;
33954;SDS011;20233;50.804;7.126;2023-08-01T00:27:32;1.80;;;0.20;;
33954;SDS011;20233;50.804;7.126;2023-08-01T00:29:58;3.33;;;0.20;;
33954;SDS011;20233;50.804;7.126;2023-08-01T00:32:24;2.47;;;0.25;;
33954;SDS011;20233;50.804;7.126;2023-08-01T00:34:51;0.75;;;0.10;;
33954;SDS011;20233;50.804;7.126;2023-08-01T00:37:17;2.22;;;0.20;;
33954;SDS011;20233;50.804;7.126;2023-08-01T00:39:43;3.33;;;0.30;;
33954;SDS011;20233;50.804;7.126;2023-08-01T00:42:10;3.58;;;0.32;;
33954;SDS011;20233;50.804;7.126;2023-08-01T00:44:36;0.90;;;0.10;;
33954;SDS011;20233;50.804;7.126;2023-08-01T00:47:03;0.70;;;0.13;;
33954;SDS011;20233;50.804;7.126;2023-08-01T00:49:30;4.88;;;0.20;;
33954;SDS011;20233;50.804;7.126;2023-08-01T00:51:56;0.68;;;0.10;;
33954;SDS011;20233;50.804;7.126;2023-08-01T00:54:23;0.77;;;0.20;;
33954;SDS011;20233;50.804;7.126;2023-08-01T00:56:50;1.73;;;0.10;;
33954;SDS011;20233;50.804;7.126;2023-08-01T00:59:16;1.25;;;0.10;;
33954;SDS011;20233;50.804;7.126;2023-08-01T01:01:42;3.33;;;0.10;;
33954;SDS011;20233;50.804;7.126;2023-08-01T01:04:09;2.05;;;0.15;;
33954;SDS011;20233;50.804;7.126;2023-08-01T01:06:41;1.83;;;0.10;;
33954;SDS011;20233;50.804;7.126;2023-08-01T01:09:16;2.33;;;0.10;;
33954;SDS011;20233;50.804;7.126;2023-08-01T01:11:43;1.67;;;0.20;;
33954;SDS011;20233;50.804;7.126;2023-08-01T01:14:10;1.42;;;0.20;;
33954;SDS011;20233;50.804;7.126;2023-08-01T01:16:36;2.80;;;0.20;;
33954;SDS011;20233;50.804;7.126;2023-08-01T01:19:07;1.23;;;0.17;;
33954;SDS011;20233;50.804;7.126;2023-08-01T01:21:37;1.60;;;0.10;;
33954;SDS011;20233;50.804;7.126;2023-08-01T01:24:05;0.98;;;0.20;;
33954;SDS011;20233;50.804;7.126;2023-08-01T01:26:35;0.90;;;0.10;;
33954;SDS011;20233;50.804;7.126;2023-08-01T01:29:02;2.38;;;0.10;;
33954;SDS011;20233;50.804;7.126;2023-08-01T01:31:31;1.10;;;0.20;;
33954;SDS011;20233;50.804;7.126;2023-08-01T01:33:59;2.45;;;0.13;;
33954;SDS011;20233;50.804;7.126;2023-08-01T01:36:26;2.15;;;0.20;;
33954;SDS011;20233;50.804;7.126;2023-08-01T01:38:53;3.00;;;0.10;;
33954;SDS011;20233;50.804;7.126;2023-08-01T01:41:19;1.83;;;0.20;;
33954;SDS011;20233;50.804;7.126;2023-08-01T01:43:45;0.88;;;0.20;;
33954;SDS011;20233;50.804;7.126;2023-08-01T01:46:11;0.95;;;0.10;;
33954;SDS011;20233;50.804;7.126;2023-08-01T01:48:37;1.08;;;0.10;;
33954;SDS011;20233;50.804;7.126;2023-08-01T01:51:04;2.15;;;0.20;;
33954;SDS011;20233;50.804;7.126;2023-08-01T01:53:30;2.00;;;0.20;;
33954;SDS011;20233;50.804;7.126;2023-08-01T01:55:56;1.17;;;0.20;;
33954;SDS011;20233;50.804;7.126;2023-08-01T01:58:23;6.28;;;0.13;;
33954;SDS011;20233;50.804;7.126;2023-08-01T02:00:49;1.33;;;0.10;;
33954;SDS011;20233;50.804;7.126;2023-08-01T02:03:14;0.45;;;0.00;;
33954;SDS011;20233;50.804;7.126;2023-08-01T02:05:40;1.25;;;0.10;;
33954;SDS011;20233;50.804;7.126;2023-08-01T02:08:07;1.70;;;0.10;;
33954;SDS011;20233;50.804;7.126;2023-08-01T02:10:33;0.38;;;0.10;;
33954;SDS011;20233;50.804;7.126;2023-08-01T02:12:59;1.95;;;0.10;;
33954;SDS011;20233;50.804;7.126;2023-08-01T02:15:25;0.55;;;0.00;;
33954;SDS011;20233;50.804;7.126;2023-08-01T02:17:52;1.33;;;0.00;;
33954;SDS011;20233;50.804;7.126;2023-08-01T02:20:18;2.58;;;0.00;;
33954;SDS011;20233;50.804;7.126;2023-08-01T02:22:44;0.85;;;0.10;;
33954;SDS011;20233;50.804;7.126;2023-08-01T02:25:10;0.40;;;0.10;;
33954;SDS011;20233;50.804;7.126;2023-08-01T02:27:36;0.88;;;0.10;;
33954;SDS011;20233;50.804;7.126;2023-08-01T02:30:03;1.30;;;0.10;;
33954;SDS011;20233;50.804;7.126;2023-08-01T02:32:30;2.35;;;0.10;;
33954;SDS011;20233;50.804;7.126;2023-08-01T02:34:57;0.85;;;0.10;;
33954;SDS011;20233;50.804;7.126;2023-08-01T02:37:22;1.65;;;0.40;;
33954;SDS011;20233;50.804;7.126;2023-08-01T02:39:49;0.20;;;0.00;;
33954;SDS011;20233;50.804;7.126;2023-08-01T02:42:15;0.40;;;0.10;;
33954;SDS011;20233;50.804;7.126;2023-08-01T02:44:41;1.08;;;0.10;;
33954;SDS011;20233;50.804;7.126;2023-08-01T02:47:07;0.60;;;0.10;;
33954;SDS011;20233;50.804;7.126;2023-08-01T02:49:34;2.13;;;0.10;;
33954;SDS011;20233;50.804;7.126;2023-08-01T02:52:00;6.13;;;0.30;;
33954;SDS011;20233;50.804;7.126;2023-08-01T02:54:26;0.30;;;0.00;;
33954;SDS011;20233;50.804;7.126;2023-08-01T02:56:52;2.55;;;0.10;;
33954;SDS011;20233;50.804;7.126;2023-08-01T02:59:19;1.25;;;0.20;;
33954;SDS011;20233;50.804;7.126;2023-08-01T03:01:45;0.40;;;0.10;;
33954;SDS011;20233;50.804;7.126;2023-08-01T03:04:11;2.97;;;0.55;;
33954;SDS011;20233;50.804;7.126;2023-08-01T03:06:37;1.35;;;0.10;;
33954;SDS011;20233;50.804;7.126;2023-08-01T03:09:04;0.98;;;0.17;;
33954;SDS011;20233;50.804;7.126;2023-08-01T03:11:33;2.03;;;0.10;;
33954;SDS011;20233;50.804;7.126;2023-08-01T03:14:03;1.43;;;0.10;;
33954;SDS011;20233;50.804;7.126;2023-08-01T03:16:31;0.70;;;0.20;;
33954;SDS011;20233;50.804;7.126;2023-08-01T03:18:58;2.35;;;0.10;;
33954;SDS011;20233;50.804;7.126;2023-08-01T03:21:32;1.70;;;0.20;;
33954;SDS011;20233;50.804;7.126;2023-08-01T03:23:59;1.75;;;0.30;;
33954;SDS011;20233;50.804;7.126;2023-08-01T03:26:26;1.85;;;0.20;;
33954;SDS011;20233;50.804;7.126;2023-08-01T03:28:55;0.70;;;0.10;;
33954;SDS011;20233;50.804;7.126;2023-08-01T03:31:22;3.92;;;0.30;;
33954;SDS011;20233;50.804;7.126;2023-08-01T03:33:48;0.98;;;0.20;;
33954;SDS011;20233;50.804;7.126;2023-08-01T03:36:14;2.95;;;0.35;;
33954;SDS011;20233;50.804;7.126;2023-08-01T03:38:40;2.35;;;0.20;;
33954;SDS011;20233;50.804;7.126;2023-08-01T03:41:07;3.83;;;0.30;;
33954;SDS011;20233;50.804;7.126;2023-08-01T03:43:33;1.70;;;0.30;;
33954;SDS011;20233;50.804;7.126;2023-08-01T03:46:00;2.45;;;0.20;;
33954;SDS011;20233;50.804;7.126;2023-08-01T03:48:26;4.82;;;0.30;;
33954;SDS011;20233;50.804;7.126;2023-08-01T03:50:53;4.00;;;1.00;;
33954;SDS011;20233;50.804;7.126;2023-08-01T03:53:19;3.95;;;0.30;;
33954;SDS011;20233;50.804;7.126;2023-08-01T03:55:45;2.35;;;0.30;;
33954;SDS011;20233;50.804;7.126;2023-08-01T03:58:13;2.05;;;0.30;;
33954;SDS011;20233;50.804;7.126;2023-08-01T04:00:39;2.30;;;0.35;;
33954;SDS011;20233;50.804;7.126;2023-08-01T04:03:05;4.72;;;0.40;;
33954;SDS011;20233;50.804;7.126;2023-08-01T04:05:32;1.75;;;0.40;;
33954;SDS011;20233;50.804;7.126;2023-08-01T04:07:59;2.05;;;0.40;;
33954;SDS011;20233;50.804;7.126;2023-08-01T04:10:26;3.38;;;0.75;;
33954;SDS011;20233;50.804;7.126;2023-08-01T04:12:52;2.95;;;0.40;;
33954;SDS011;20233;50.804;7.126;2023-08-01T04:15:19;3.13;;;0.93;;
33954;SDS011;20233;50.804;7.126;2023-08-01T04:17:45;5.38;;;0.82;;
33954;SDS011;20233;50.804;7.126;2023-08-01T04:20:10;2.28;;;0.95;;
33954;SDS011;20233;50.804;7.126;2023-08-01T04:22:37;4.85;;;1.20;;
33954;SDS011;20233;50.804;7.126;2023-08-01T04:25:03;4.40;;;1.02;;
33954;SDS011;20233;50.804;7.126;2023-08-01T04:27:30;2.67;;;1.27;;
33954;SDS011;20233;50.804;7.126;2023-08-01T04:29:56;3.63;;;1.20;;
33954;SDS011;20233;50.804;7.126;2023-08-01T04:32:22;3.15;;;1.17;;
33954;SDS011;20233;50.804;7.126;2023-08-01T04:34:48;3.53;;;1.45;;
33954;SDS011;20233;50.804;7.126;2023-08-01T04:37:15;3.67;;;1.63;;
33954;SDS011;20233;50.804;7.126;2023-08-01T04:39:40;5.28;;;2.05;;
33954;SDS011;20233;50.804;7.126;2023-08-01T04:42:07;8.23;;;2.38;;
33954;SDS011;20233;50.804;7.126;2023-08-01T04:44:34;3.75;;;1.83;;
33954;SDS011;20233;50.804;7.126;2023-08-01T04:47:00;4.40;;;2.13;;
33954;SDS011;20233;50.804;7.126;2023-08-01T04:49:27;3.88;;;2.05;;
33954;SDS011;20233;50.804;7.126;2023-08-01T04:51:53;5.18;;;2.95;;
33954;SDS011;20233;50.804;7.126;2023-08-01T04:54:20;4.57;;;1.85;;
33954;SDS011;20233;50.804;7.126;2023-08-01T04:56:46;4.60;;;2.30;;
33954;SDS011;20233;50.804;7.126;2023-08-01T04:59:13;5.88;;;2.17;;
33954;SDS011;20233;50.804;7.126;2023-08-01T05:01:38;9.13;;;2.45;;
33954;SDS011;20233;50.804;7.126;2023-08-01T05:04:06;7.65;;;2.22;;
33954;SDS011;20233;50.804;7.126;2023-08-01T05:06:33;7.28;;;2.30;;
33954;SDS011;20233;50.804;7.126;2023-08-01T05:09:00;6.20;;;1.98;;
33954;SDS011;20233;50.804;7.126;2023-08-01T05:11:26;6.32;;;2.90;;
33954;SDS011;20233;50.804;7.126;2023-08-01T05:13:53;8.30;;;2.47;;
33954;SDS011;20233;50.804;7.126;2023-08-01T05:16:19;6.13;;;2.85;;
33954;SDS011;20233;50.804;7.126;2023-08-01T05:18:45;11.68;;;3.55;;
33954;SDS011;20233;50.804;7.126;2023-08-01T05:21:11;7.43;;;2.72;;
33954;SDS011;20233;50.804;7.126;2023-08-01T05:23:37;8.60;;;2.75;;
33954;SDS011;20233;50.804;7.126;2023-08-01T05:26:03;6.50;;;3.13;;
33954;SDS011;20233;50.804;7.126;2023-08-01T05:28:30;6.07;;;2.78;;
33954;SDS011;20233;50.804;7.126;2023-08-01T05:30:56;7.38;;;3.30;;
33954;SDS011;20233;50.804;7.126;2023-08-01T05:33:22;6.35;;;2.60;;
33954;SDS011;20233;50.804;7.126;2023-08-01T05:35:48;5.47;;;3.10;;
33954;SDS011;20233;50.804;7.126;2023-08-01T05:38:15;6.35;;;2.67;;
33954;SDS011;20233;50.804;7.126;2023-08-01T05:40:42;8.43;;;2.75;;
33954;SDS011;20233;50.804;7.126;2023-08-01T05:43:08;4.93;;;2.65;;
33954;SDS011;20233;50.804;7.126;2023-08-01T05:45:38;7.18;;;2.88;;
33954;SDS011;20233;50.804;7.126;2023-08-01T05:48:04;5.13;;;2.35;;
33954;SDS011;20233;50.804;7.126;2023-08-01T05:50:30;6.70;;;3.10;;
33954;SDS011;20233;50.804;7.126;2023-08-01T05:52:56;8.70;;;2.97;;
33954;SDS011;20233;50.804;7.126;2023-08-01T05:55:22;5.95;;;2.80;;
33954;SDS011;20233;50.804;7.126;2023-08-01T05:57:48;6.85;;;2.15;;
33954;SDS011;20233;50.804;7.126;2023-08-01T06:00:18;7.65;;;2.50;;
33954;SDS011;20233;50.804;7.126;2023-08-01T06:02:47;6.60;;;2.80;;
33954;SDS011;20233;50.804;7.126;2023-08-01T06:05:15;3.28;;;2.10;;
33954;SDS011;20233;50.804;7.126;2023-08-01T06:07:42;5.68;;;2.20;;
33954;SDS011;20233;50.804;7.126;2023-08-01T06:10:11;4.72;;;1.80;;
33954;SDS011;20233;50.804;7.126;2023-08-01T06:12:37;8.63;;;2.08;;
33954;SDS011;20233;50.804;7.126;2023-08-01T06:15:05;3.70;;;1.95;;
33954;SDS011;20233;50.804;7.126;2023-08-01T06:17:32;4.60;;;2.08;;
33954;SDS011;20233;50.804;7.126;2023-08-01T06:20:02;5.82;;;2.13;;
33954;SDS011;20233;50.804;7.126;2023-08-01T06:22:30;4.25;;;2.53;;
33954;SDS011;20233;50.804;7.126;2023-08-01T06:24:56;5.80;;;2.40;;
33954;SDS011;20233;50.804;7.126;2023-08-01T06:27:24;4.68;;;2.15;;
33954;SDS011;20233;50.804;7.126;2023-08-01T06:29:50;5.90;;;2.30;;
33954;SDS011;20233;50.804;7.126;2023-08-01T06:32:16;4.88;;;2.00;;
33954;SDS011;20233;50.804;7.126;2023-08-01T06:34:42;7.25;;;2.10;;
33954;SDS011;20233;50.804;7.126;2023-08-01T06:37:09;8.07;;;2.30;;
33954;SDS011;20233;50.804;7.126;2023-08-01T06:39:37;5.50;;;2.10;;
33954;SDS011;20233;50.804;7.126;2023-08-01T06:42:03;12.10;;;2.60;;
33954;SDS011;20233;50.804;7.126;2023-08-01T06:44:30;6.55;;;2.50;;
33954;SDS011;20233;50.804;7.126;2023-08-01T06:46:59;7.82;;;2.70;;
33954;SDS011;20233;50.804;7.126;2023-08-01T06:49:25;7.25;;;2.50;;
33954;SDS011;20233;50.804;7.126;2023-08-01T06:51:51;5.60;;;2.28;;
33954;SDS011;20233;50.804;7.126;2023-08-01T06:54:18;7.75;;;2.85;;
33954;SDS011;20233;50.804;7.126;2023-08-01T06:56:45;4.85;;;2.28;;
33954;SDS011;20233;50.804;7.126;2023-08-01T06:59:15;9.55;;;2.30;;
33954;SDS011;20233;50.804;7.126;2023-08-01T07:01:41;7.82;;;2.30;;
33954;SDS011;20233;50.804;7.126;2023-08-01T07:04:12;4.68;;;3.30;;
33954;SDS011;20233;50.804;7.126;2023-08-01T07:06:39;9.55;;;2.88;;
33954;SDS011;20233;50.804;7.126;2023-08-01T07:09:06;5.78;;;2.58;;
33954;SDS011;20233;50.804;7.126;2023-08-01T07:11:32;6.63;;;2.47;;
33954;SDS011;20233;50.804;7.126;2023-08-01T07:13:59;7.65;;;2.38;;
33954;SDS011;20233;50.804;7.126;2023-08-01T07:16:25;7.95;;;2.75;;
33954;SDS011;20233;50.804;7.126;2023-08-01T07:18:51;8.10;;;2.22;;
33954;SDS011;20233;50.804;7.126;2023-08-01T07:21:18;10.65;;;2.80;;
33954;SDS011;20233;50.804;7.126;2023-08-01T07:23:46;5.00;;;2.88;;
33954;SDS011;20233;50.804;7.126;2023-08-01T07:26:13;6.38;;;2.67;;
33954;SDS011;20233;50.804;7.126;2023-08-01T07:28:39;7.20;;;2.92;;
33954;SDS011;20233;50.804;7.126;2023-08-01T07:31:06;9.45;;;3.42;;
33954;SDS011;20233;50.804;7.126;2023-08-01T07:33:34;7.43;;;3.30;;
33954;SDS011;20233;50.804;7.126;2023-08-01T07:36:00;7.15;;;3.30;;
33954;SDS011;20233;50.804;7.126;2023-08-01T07:38:28;5.13;;;3.03;;
33954;SDS011;20233;50.804;7.126;2023-08-01T07:40:54;9.88;;;3.85;;
33954;SDS011;20233;50.804;7.126;2023-08-01T07:43:22;7.68;;;3.50;;
33954;SDS011;20233;50.804;7.126;2023-08-01T07:45:55;8.80;;;4.03;;
33954;SDS011;20233;50.804;7.126;2023-08-01T07:48:22;7.05;;;3.63;;
33954;SDS011;20233;50.804;7.126;2023-08-01T07:50:49;7.30;;;3.53;;
33954;SDS011;20233;50.804;7.126;2023-08-01T07:53:16;7.70;;;2.83;;
33954;SDS011;20233;50.804;7.126;2023-08-01T07:55:42;5.68;;;2.70;;
33954;SDS011;20233;50.804;7.126;2023-08-01T07:58:08;7.35;;;3.03;;
33954;SDS011;20233;50.804;7.126;2023-08-01T08:00:35;8.60;;;3.60;;
33954;SDS011;20233;50.804;7.126;2023-08-01T08:03:02;7.43;;;3.50;;
33954;SDS011;20233;50.804;7.126;2023-08-01T08:05:31;6.82;;;3.00;;
33954;SDS011;20233;50.804;7.126;2023-08-01T08:07:57;7.75;;;2.90;;
33954;SDS011;20233;50.804;7.126;2023-08-01T08:10:24;4.70;;;2.60;;
33954;SDS011;20233;50.804;7.126;2023-08-01T08:12:51;6.78;;;3.10;;
33954;SDS011;20233;50.804;7.126;2023-08-01T08:15:17;7.35;;;3.33;;
33954;SDS011;20233;50.804;7.126;2023-08-01T08:17:45;7.10;;;3.38;;
33954;SDS011;20233;50.804;7.126;2023-08-01T08:20:11;8.02;;;3.45;;
33954;SDS011;20233;50.804;7.126;2023-08-01T08:22:38;6.45;;;3.78;;
33954;SDS011;20233;50.804;7.126;2023-08-01T08:25:04;7.22;;;3.72;;
33954;SDS011;20233;50.804;7.126;2023-08-01T08:27:31;8.30;;;3.92;;
33954;SDS011;20233;50.804;7.126;2023-08-01T08:29:57;7.75;;;3.70;;
33954;SDS011;20233;50.804;7.126;2023-08-01T08:32:24;5.68;;;3.72;;
33954;SDS011;20233;50.804;7.126;2023-08-01T08:34:52;6.70;;;3.65;;
33954;SDS011;20233;50.804;7.126;2023-08-01T08:37:19;6.97;;;3.60;;
33954;SDS011;20233;50.804;7.126;2023-08-01T08:39:46;7.88;;;4.00;;
33954;SDS011;20233;50.804;7.126;2023-08-01T08:42:12;7.85;;;3.85;;
33954;SDS011;20233;50.804;7.126;2023-08-01T08:44:42;5.00;;;3.30;;
33954;SDS011;20233;50.804;7.126;2023-08-01T08:47:11;6.68;;;3.47;;
33954;SDS011;20233;50.804;7.126;2023-08-01T08:49:38;8.98;;;3.85;;
33954;SDS011;20233;50.804;7.126;2023-08-01T08:52:06;8.48;;;3.05;;
33954;SDS011;20233;50.804;7.126;2023-08-01T08:54:37;7.10;;;3.55;;
33954;SDS011;20233;50.804;7.126;2023-08-01T08:57:06;8.40;;;3.28;;
33954;SDS011;20233;50.804;7.126;2023-08-01T08:59:33;8.02;;;3.45;;
33954;SDS011;20233;50.804;7.126;2023-08-01T09:02:01;7.28;;;3.08;;
33954;SDS011;20233;50.804;7.126;2023-08-01T09:04:30;6.88;;;3.40;;
33954;SDS011;20233;50.804;7.126;2023-08-01T09:07:06;5.55;;;3.03;;
33954;SDS011;20233;50.804;7.126;2023-08-01T09:09:41;6.78;;;3.13;;
33954;SDS011;20233;50.804;7.126;2023-08-01T09:12:07;5.63;;;2.22;;
33954;SDS011;20233;50.804;7.126;2023-08-01T09:14:35;5.53;;;2.55;;
33954;SDS011;20233;50.804;7.126;2023-08-01T09:17:08;7.80;;;2.00;;
33954;SDS011;20233;50.804;7.126;2023-08-01T09:19:35;5.40;;;1.83;;
33954;SDS011;20233;50.804;7.126;2023-08-01T09:22:01;6.45;;;2.08;;
33954;SDS011;20233;50.804;7.126;2023-08-01T09:24:36;5.07;;;2.00;;
33954;SDS011;20233;50.804;7.126;2023-08-01T09:27:03;4.55;;;2.10;;
33954;SDS011;20233;50.804;7.126;2023-08-01T09:29:31;5.00;;;1.73;;
33954;SDS011;20233;50.804;7.126;2023-08-01T09:31:58;6.40;;;1.45;;
33954;SDS011;20233;50.804;7.126;2023-08-01T09:34:26;7.15;;;2.17;;
33954;SDS011;20233;50.804;7.126;2023-08-01T09:36:57;6.20;;;2.30;;
33954;SDS011;20233;50.804;7.126;2023-08-01T09:39:27;5.32;;;2.05;;
33954;SDS011;20233;50.804;7.126;2023-08-01T09:42:01;4.82;;;1.58;;
33954;SDS011;20233;50.804;7.126;2023-08-01T09:44:28;6.60;;;1.58;;
33954;SDS011;20233;50.804;7.126;2023-08-01T09:46:56;4.20;;;1.25;;
33954;SDS011;20233;50.804;7.126;2023-08-01T09:49:29;4.95;;;1.83;;
33954;SDS011;20233;50.804;7.126;2023-08-01T09:51:56;4.15;;;1.48;;
33954;SDS011;20233;50.804;7.126;2023-08-01T09:54:23;4.40;;;1.48;;
33954;SDS011;20233;50.804;7.126;2023-08-01T09:56:51;5.88;;;1.88;;
33954;SDS011;20233;50.804;7.126;2023-08-01T09:59:21;7.47;;;1.77;;
33954;SDS011;20233;50.804;7.126;2023-08-01T10:01:52;4.95;;;1.92;;
33954;SDS011;20233;50.804;7.126;2023-08-01T10:04:23;5.40;;;1.53;;
33954;SDS011;20233;50.804;7.126;2023-08-01T10:07:11;3.97;;;1.77;;
33954;SDS011;20233;50.804;7.126;2023-08-01T10:09:38;3.60;;;1.30;;
33954;SDS011;20233;50.804;7.126;2023-08-01T10:12:06;4.07;;;1.25;;
33954;SDS011;20233;50.804;7.126;2023-08-01T10:14:37;5.07;;;1.10;;
33954;SDS011;20233;50.804;7.126;2023-08-01T10:17:04;5.40;;;1.40;;
33954;SDS011;20233;50.804;7.126;2023-08-01T10:19:32;5.93;;;1.50;;
33954;SDS011;20233;50.804;7.126;2023-08-01T10:21:59;4.70;;;1.15;;
33954;SDS011;20233;50.804;7.126;2023-08-01T10:24:28;2.47;;;0.88;;
33954;SDS011;20233;50.804;7.126;2023-08-01T10:26:56;5.18;;;1.27;;
33954;SDS011;20233;50.804;7.126;2023-08-01T10:29:33;6.72;;;1.10;;
33954;SDS011;20233;50.804;7.126;2023-08-01T10:32:01;4.75;;;1.58;;
33954;SDS011;20233;50.804;7.126;2023-08-01T10:34:27;2.90;;;1.05;;
33954;SDS011;20233;50.804;7.126;2023-08-01T10:36:55;4.75;;;0.82;;
33954;SDS011;20233;50.804;7.126;2023-08-01T10:39:22;3.45;;;1.10;;
33954;SDS011;20233;50.804;7.126;2023-08-01T10:42:03;6.78;;;1.48;;
33954;SDS011;20233;50.804;7.126;2023-08-01T10:44:32;5.43;;;1.60;;
33954;SDS011;20233;50.804;7.126;2023-08-01T10:47:01;6.20;;;1.45;;
33954;SDS011;20233;50.804;7.126;2023-08-01T10:49:33;3.58;;;1.27;;
33954;SDS011;20233;50.804;7.126;2023-08-01T10:54:55;5.68;;;2.00;;
33954;SDS011;20233;50.804;7.126;2023-08-01T10:57:27;5.22;;;1.10;;
33954;SDS011;20233;50.804;7.126;2023-08-01T11:00:00;5.22;;;1.20;;
33954;SDS011;20233;50.804;7.126;2023-08-01T11:02:37;5.10;;;1.48;;
33954;SDS011;20233;50.804;7.126;2023-08-01T11:05:06;4.85;;;1.02;;
33954;SDS011;20233;50.804;7.126;2023-08-01T11:07:35;3.22;;;0.98;;
33954;SDS011;20233;50.804;7.126;2023-08-01T11:10:05;4.57;;;1.13;;
33954;SDS011;20233;50.804;7.126;2023-08-01T11:12:40;4.88;;;1.20;;
33954;SDS011;20233;50.804;7.126;2023-08-01T11:15:12;3.53;;;0.77;;
33954;SDS011;20233;50.804;7.126;2023-08-01T11:17:40;4.53;;;1.05;;
33954;SDS011;20233;50.804;7.126;2023-08-01T11:20:09;4.45;;;1.08;;
33954;SDS011;20233;50.804;7.126;2023-08-01T11:22:48;3.22;;;0.85;;
33954;SDS011;20233;50.804;7.126;2023-08-01T11:27:44;7.72;;;1.33;;
33954;SDS011;20233;50.804;7.126;2023-08-01T11:30:10;3.05;;;0.82;;
33954;SDS011;20233;50.804;7.126;2023-08-01T11:32:38;2.08;;;0.60;;
33954;SDS011;20233;50.804;7.126;2023-08-01T11:35:05;3.72;;;0.80;;
33954;SDS011;20233;50.804;7.126;2023-08-01T11:37:33;2.58;;;0.47;;
33954;SDS011;20233;50.804;7.126;2023-08-01T11:40:01;4.93;;;0.77;;
33954;SDS011;20233;50.804;7.126;2023-08-01T11:42:31;5.22;;;0.70;;
33954;SDS011;20233;50.804;7.126;2023-08-01T11:45:08;5.03;;;1.00;;
33954;SDS011;20233;50.804;7.126;2023-08-01T11:47:36;5.68;;;1.13;;
33954;SDS011;20233;50.804;7.126;2023-08-01T11:50:03;1.90;;;1.00;;
33954;SDS011;20233;50.804;7.126;2023-08-01T11:52:31;5.60;;;1.00;;
33954;SDS011;20233;50.804;7.126;2023-08-01T11:54:58;2.72;;;0.65;;
33954;SDS011;20233;50.804;7.126;2023-08-01T11:57:25;3.28;;;1.00;;
33954;SDS011;20233;50.804;7.126;2023-08-01T11:59:54;3.40;;;0.73;;
33954;SDS011;20233;50.804;7.126;2023-08-01T12:02:24;5.07;;;0.77;;
33954;SDS011;20233;50.804;7.126;2023-08-01T12:04:53;3.85;;;1.00;;
33954;SDS011;20233;50.804;7.126;2023-08-01T12:07:20;4.43;;;0.93;;
33954;SDS011;20233;50.804;7.126;2023-08-01T12:09:57;4.57;;;1.00;;
33954;SDS011;20233;50.804;7.126;2023-08-01T12:12:26;5.63;;;0.98;;
33954;SDS011;20233;50.804;7.126;2023-08-01T12:14:54;5.60;;;0.90;;
33954;SDS011;20233;50.804;7.126;2023-08-01T12:17:22;3.72;;;1.02;;
33954;SDS011;20233;50.804;7.126;2023-08-01T12:19:48;4.00;;;1.23;;
33954;SDS011;20233;50.804;7.126;2023-08-01T12:22:15;4.97;;;1.02;;
33954;SDS011;20233;50.804;7.126;2023-08-01T12:24:41;4.53;;;1.10;;
33954;SDS011;20233;50.804;7.126;2023-08-01T12:27:08;5.68;;;1.45;;
33954;SDS011;20233;50.804;7.126;2023-08-01T12:29:37;3.20;;;1.35;;
33954;SDS011;20233;50.804;7.126;2023-08-01T12:32:07;5.72;;;1.45;;
33954;SDS011;20233;50.804;7.126;2023-08-01T12:34:34;4.47;;;1.00;;
33954;SDS011;20233;50.804;7.126;2023-08-01T12:37:01;2.72;;;0.90;;
33954;SDS011;20233;50.804;7.126;2023-08-01T12:39:29;3.80;;;1.00;;
33954;SDS011;20233;50.804;7.126;2023-08-01T12:41:56;2.40;;;0.77;;
33954;SDS011;20233;50.804;7.126;2023-08-01T12:44:22;3.33;;;0.70;;
33954;SDS011;20233;50.804;7.126;2023-08-01T12:46:49;3.47;;;0.68;;
33954;SDS011;20233;50.804;7.126;2023-08-01T12:49:17;3.72;;;0.77;;
33954;SDS011;20233;50.804;7.126;2023-08-01T12:51:43;4.93;;;0.98;;
33954;SDS011;20233;50.804;7.126;2023-08-01T12:54:10;5.15;;;0.93;;
33954;SDS011;20233;50.804;7.126;2023-08-01T12:56:38;2.38;;;0.60;;
33954;SDS011;20233;50.804;7.126;2023-08-01T12:59:04;3.78;;;0.70;;
33954;SDS011;20233;50.804;7.126;2023-08-01T13:01:31;5.10;;;0.40;;
33954;SDS011;20233;50.804;7.126;2023-08-01T13:03:58;2.45;;;0.70;;
33954;SDS011;20233;50.804;7.126;2023-08-01T13:06:25;0.85;;;0.30;;
33954;SDS011;20233;50.804;7.126;2023-08-01T13:08:52;4.35;;;0.60;;
33954;SDS011;20233;50.804;7.126;2023-08-01T13:11:18;5.00;;;0.88;;
33954;SDS011;20233;50.804;7.126;2023-08-01T13:13:45;4.05;;;0.43;;
33954;SDS011;20233;50.804;7.126;2023-08-01T13:16:11;3.25;;;0.50;;
33954;SDS011;20233;50.804;7.126;2023-08-01T13:18:38;2.60;;;0.30;;
33954;SDS011;20233;50.804;7.126;2023-08-01T13:21:13;1.88;;;0.25;;
33954;SDS011;20233;50.804;7.126;2023-08-01T13:23:39;1.88;;;0.30;;
33954;SDS011;20233;50.804;7.126;2023-08-01T13:26:06;2.20;;;0.20;;
33954;SDS011;20233;50.804;7.126;2023-08-01T13:28:32;2.00;;;0.30;;
33954;SDS011;20233;50.804;7.126;2023-08-01T13:30:59;3.00;;;0.30;;
33954;SDS011;20233;50.804;7.126;2023-08-01T13:33:26;3.80;;;0.20;;
33954;SDS011;20233;50.804;7.126;2023-08-01T13:35:53;1.42;;;0.35;;
33954;SDS011;20233;50.804;7.126;2023-08-01T13:38:23;1.60;;;0.20;;
33954;SDS011;20233;50.804;7.126;2023-08-01T13:40:50;4.10;;;0.63;;
33954;SDS011;20233;50.804;7.126;2023-08-01T13:43:16;2.95;;;0.30;;
33954;SDS011;20233;50.804;7.126;2023-08-01T13:45:42;1.98;;;0.22;;
33954;SDS011;20233;50.804;7.126;2023-08-01T13:48:09;2.83;;;0.47;;
33954;SDS011;20233;50.804;7.126;2023-08-01T13:50:36;3.53;;;0.52;;
33954;SDS011;20233;50.804;7.126;2023-08-01T13:53:03;2.55;;;0.30;;
33954;SDS011;20233;50.804;7.126;2023-08-01T13:55:32;1.90;;;0.30;;
33954;SDS011;20233;50.804;7.126;2023-08-01T13:57:58;2.28;;;0.30;;
33954;SDS011;20233;50.804;7.126;2023-08-01T14:00:24;4.50;;;0.40;;
33954;SDS011;20233;50.804;7.126;2023-08-01T14:02:50;3.17;;;0.30;;
33954;SDS011;20233;50.804;7.126;2023-08-01T14:05:17;2.45;;;0.40;;
33954;SDS011;20233;50.804;7.126;2023-08-01T14:07:43;3.10;;;0.75;;
33954;SDS011;20233;50.804;7.126;2023-08-01T14:10:10;3.05;;;0.50;;
33954;SDS011;20233;50.804;7.126;2023-08-01T14:12:36;3.30;;;0.35;;
33954;SDS011;20233;50.804;7.126;2023-08-01T14:15:03;3.20;;;0.80;;
33954;SDS011;20233;50.804;7.126;2023-08-01T14:17:30;3.53;;;0.50;;
33954;SDS011;20233;50.804;7.126;2023-08-01T14:19:57;3.28;;;0.73;;
33954;SDS011;20233;50.804;7.126;2023-08-01T14:22:24;2.45;;;0.60;;
33954;SDS011;20233;50.804;7.126;2023-08-01T14:24:50;4.60;;;0.60;;
33954;SDS011;20233;50.804;7.126;2023-08-01T14:27:16;4.40;;;0.47;;
33954;SDS011;20233;50.804;7.126;2023-08-01T14:29:42;4.22;;;0.77;;
33954;SDS011;20233;50.804;7.126;2023-08-01T14:32:10;5.55;;;1.30;;
33954;SDS011;20233;50.804;7.126;2023-08-01T14:34:38;3.67;;;0.98;;
33954;SDS011;20233;50.804;7.126;2023-08-01T14:37:04;5.70;;;0.73;;
33954;SDS011;20233;50.804;7.126;2023-08-01T14:39:30;3.20;;;0.82;;
33954;SDS011;20233;50.804;7.126;2023-08-01T14:41:57;2.10;;;0.70;;
33954;SDS011;20233;50.804;7.126;2023-08-01T14:44:24;4.00;;;0.65;;
33954;SDS011;20233;50.804;7.126;2023-08-01T14:46:50;4.32;;;0.50;;
33954;SDS011;20233;50.804;7.126;2023-08-01T14:49:16;2.13;;;0.45;;
33954;SDS011;20233;50.804;7.126;2023-08-01T14:51:42;3.97;;;0.70;;
33954;SDS011;20233;50.804;7.126;2023-08-01T14:54:08;5.43;;;0.70;;